Time;durP1;ratioP1;P1;durP2;ratioP2;P2;SDS_P1;SDS_P2;PMS_P1;PMS_P2;Temp;Humidity;BMP_temperature;BMP_pressure;BME280_temperature;BME280_humidity;BME280_pressure;Samples;Min_cycle;Max_cycle;Signal;HPM_P1;HPM_P2
2022/02/11 00:08:15;;;;;;;18.63;10.07;;;6.20;99.90;;;;;;5029820;28;20048;-69
2022/02/11 00:11:24;;;;;;;17.77;8.70;;;6.20;99.90;;;;;;5029839;28;20389;-69
2022/02/11 00:14:33;;;;;;;25.25;13.50;;;6.30;99.90;;;;;;5029428;28;20040;-69
2022/02/11 00:17:37;;;;;;;16.33;7.00;;;6.30;99.90;;;;;;5029846;28;20052;-69
2022/02/11 00:20:49;;;;;;;17.95;7.38;;;6.30;99.90;;;;;;5030000;28;20049;-70
2022/02/11 00:23:55;;;;;;;16.35;7.45;;;6.30;99.90;;;;;;5030737;28;20061;-69
2022/02/11 00:27:54;;;;;;;18.83;7.40;;;6.20;99.90;;;;;;5029801;28;20052;-69
2022/02/11 00:33:51;;;;;;;14.27;4.70;;;6.40;99.90;;;;;;5032570;28;20045;-70
2022/02/11 00:37:30;;;;;;;15.05;5.03;;;6.50;99.90;;;;;;5033152;28;20044;-69
2022/02/11 01:06:46;;;;;;;11.02;5.38;;;6.40;99.90;;;;;;5035876;28;20065;-69
2022/02/11 01:09:49;;;;;;;14.27;6.20;;;6.20;99.90;;;;;;5035743;28;20048;-69
2022/02/11 01:12:54;;;;;;;10.48;5.40;;;6.10;99.90;;;;;;5032459;28;20048;-69
2022/02/11 01:16:06;;;;;;;14.27;6.05;;;6.10;99.90;;;;;;5031845;28;20052;-69
2022/02/11 01:19:22;;;;;;;11.90;6.28;;;6.00;99.90;;;;;;5033659;28;20053;-70
2022/02/11 01:32:47;;;;;;;12.93;6.60;;;5.40;99.90;;;;;;5034594;28;20393;-69
2022/02/11 01:39:25;;;;;;;12.75;6.28;;;5.00;99.90;;;;;;5032288;28;20048;-69
2022/02/11 01:52:43;;;;;;;14.20;6.80;;;5.10;99.90;;;;;;5033242;28;20380;-70
2022/02/11 01:59:43;;;;;;;14.52;6.70;;;5.00;99.90;;;;;;5032849;28;20045;-69
2022/02/11 02:59:00;;;;;;;38.83;21.17;;;4.60;99.90;;;;;;5030642;28;20060;-69
2022/02/11 03:16:17;;;;;;;34.13;20.55;;;4.40;99.90;;;;;;5031718;28;20064;-69
2022/02/11 03:49:27;;;;;;;42.78;22.90;;;3.40;99.90;;;;;;5030079;28;19936;-69
2022/02/11 04:55:49;;;;;;;49.40;28.77;;;2.70;99.90;;;;;;5032973;28;20000;-69
2022/02/11 05:02:20;;;;;;;49.33;29.13;;;2.70;99.90;;;;;;5033017;28;20052;-69
2022/02/11 05:05:24;;;;;;;50.67;26.63;;;2.70;99.90;;;;;;5032914;28;20405;-69
2022/02/11 05:08:28;;;;;;;50.10;26.92;;;2.70;99.90;;;;;;5032096;28;20048;-69
2022/02/11 05:11:32;;;;;;;52.47;27.50;;;2.70;99.90;;;;;;5032057;28;20044;-69
2022/02/11 05:14:36;;;;;;;44.90;25.20;;;2.70;99.90;;;;;;5032344;28;20048;-69
2022/02/11 05:17:43;;;;;;;50.47;28.63;;;2.70;99.90;;;;;;5032701;28;20048;-69
2022/02/11 05:20:47;;;;;;;55.10;29.13;;;2.70;99.90;;;;;;5032074;28;20404;-69
2022/02/11 05:23:52;;;;;;;61.30;29.23;;;2.70;99.90;;;;;;5032124;28;20040;-69
2022/02/11 05:26:56;;;;;;;51.10;26.85;;;2.70;99.90;;;;;;5032043;28;20045;-69
2022/02/11 05:30:01;;;;;;;54.55;26.70;;;2.60;99.90;;;;;;5031184;28;20408;-69
2022/02/11 05:33:06;;;;;;;51.97;26.08;;;2.60;99.90;;;;;;5032536;28;20056;-69
2022/02/11 05:36:10;;;;;;;47.58;27.15;;;2.60;99.90;;;;;;5032438;28;20060;-69
2022/02/11 05:39:14;;;;;;;48.08;25.90;;;2.50;99.90;;;;;;5031605;28;20048;-69
2022/02/11 05:42:18;;;;;;;49.38;25.92;;;2.50;99.90;;;;;;5032552;28;20052;-69
2022/02/11 05:45:23;;;;;;;46.25;25.38;;;2.50;99.90;;;;;;5032270;28;20044;-69
2022/02/11 05:48:26;;;;;;;44.05;24.98;;;2.40;99.90;;;;;;5031655;28;20056;-69
2022/02/11 05:51:30;;;;;;;46.25;26.02;;;2.30;99.90;;;;;;5031587;28;20049;-69
2022/02/11 05:54:35;;;;;;;43.03;23.92;;;2.30;99.90;;;;;;5031809;28;20049;-70
2022/02/11 05:57:39;;;;;;;49.33;25.88;;;2.30;99.90;;;;;;5031556;28;20048;-69
2022/02/11 06:00:45;;;;;;;47.40;24.38;;;2.30;99.90;;;;;;5031494;28;20036;-69
2022/02/11 06:03:49;;;;;;;43.28;22.52;;;2.30;99.90;;;;;;5031624;28;20388;-69
2022/02/11 06:06:53;;;;;;;51.00;26.33;;;2.30;99.90;;;;;;5031532;28;20045;-69
2022/02/11 06:09:58;;;;;;;44.47;23.42;;;2.20;99.90;;;;;;5031201;28;20045;-69
2022/02/11 06:13:02;;;;;;;36.95;23.38;;;2.20;99.90;;;;;;5031243;28;20044;-69
2022/02/11 06:16:06;;;;;;;40.58;22.83;;;2.30;99.90;;;;;;5031421;28;20040;-69
2022/02/11 06:19:09;;;;;;;41.80;23.58;;;2.20;99.90;;;;;;5030825;28;20048;-69
2022/02/11 06:22:13;;;;;;;44.35;23.42;;;2.20;99.90;;;;;;5031323;28;20044;-69
2022/02/11 06:25:18;;;;;;;44.92;25.25;;;2.20;99.90;;;;;;5031499;28;20044;-69
2022/02/11 06:28:22;;;;;;;58.72;29.35;;;2.20;99.90;;;;;;5031830;28;20397;-69
2022/02/11 06:31:25;;;;;;;43.90;25.05;;;2.30;99.90;;;;;;5030624;28;20499;-69
2022/02/11 06:34:29;;;;;;;49.42;26.52;;;2.40;99.90;;;;;;5031448;28;20040;-69
2022/02/11 06:37:33;;;;;;;54.88;27.00;;;2.40;99.90;;;;;;5030669;28;20056;-69
2022/02/11 06:40:38;;;;;;;46.67;24.90;;;2.50;99.90;;;;;;5031496;28;20048;-69
2022/02/11 06:43:43;;;;;;;57.55;25.73;;;2.50;99.90;;;;;;5031096;28;20045;-69
2022/02/11 06:46:49;;;;;;;53.08;24.15;;;2.60;99.90;;;;;;5031264;28;20044;-69
2022/02/11 06:49:53;;;;;;;42.90;23.08;;;2.60;99.90;;;;;;5030636;28;20036;-69
2022/02/11 06:52:58;;;;;;;48.65;23.52;;;2.60;99.90;;;;;;5031167;28;20515;-69
2022/02/11 06:56:03;;;;;;;45.80;25.00;;;2.70;99.90;;;;;;5031046;28;20037;-69
2022/02/11 06:59:07;;;;;;;48.90;24.52;;;2.80;99.90;;;;;;5028249;28;20393;-69
2022/02/11 07:02:17;;;;;;;59.22;26.63;;;3.10;99.90;;;;;;5022766;28;20052;-69
2022/02/11 07:05:23;;;;;;;50.05;24.73;;;4.30;99.90;;;;;;5027014;28;20487;-70
2022/02/11 07:08:28;;;;;;;41.95;20.95;;;6.50;99.90;;;;;;5022885;28;20052;-70
2022/02/11 07:11:32;;;;;;;29.60;15.93;;;9.40;99.90;;;;;;5023451;28;20049;-70
2022/02/11 07:14:36;;;;;;;21.70;12.60;;;12.20;99.90;;;;;;5022214;28;20199;-68
2022/02/11 07:17:40;;;;;;;22.50;12.55;;;14.40;99.90;;;;;;5021217;28;21201;-68
2022/02/11 07:20:44;;;;;;;17.15;10.23;;;15.90;99.90;;;;;;5023356;28;20334;-68
2022/02/11 07:23:48;;;;;;;18.25;10.50;;;16.60;99.90;;;;;;5027842;28;20499;-68
2022/02/11 07:26:52;;;;;;;22.55;12.50;;;17.30;99.90;;;;;;5027730;28;20048;-68
2022/02/11 07:29:55;;;;;;;22.08;9.82;;;18.40;98.40;;;;;;5029058;28;20084;-68
2022/02/11 07:33:00;;;;;;;24.35;11.32;;;18.90;96.70;;;;;;5014002;28;20121;-68
2022/02/11 07:36:04;;;;;;;15.30;9.70;;;18.80;95.20;;;;;;5026879;28;20045;-68
2022/02/11 07:39:08;;;;;;;20.38;9.77;;;18.60;94.40;;;;;;5027999;28;20060;-68
2022/02/11 07:42:14;;;;;;;18.63;9.95;;;18.00;94.30;;;;;;5029350;28;20511;-68
2022/02/11 07:45:27;;;;;;;17.60;10.07;;;18.20;94.00;;;;;;5026815;28;20053;-69
2022/02/11 07:48:31;;;;;;;15.98;9.98;;;18.60;93.80;;;;;;5027580;28;20495;-68
2022/02/11 07:51:36;;;;;;;15.35;9.40;;;18.90;93.60;;;;;;5025508;28;20056;-68
2022/02/11 07:54:41;;;;;;;23.63;13.07;;;18.50;92.20;;;;;;5020336;28;20045;-68
2022/02/11 07:57:47;;;;;;;14.57;9.80;;;19.20;92.30;;;;;;5019898;28;20044;-69
2022/02/11 08:00:54;;;;;;;15.80;8.73;;;19.10;91.20;;;;;;5024870;28;20040;-68
2022/02/11 08:03:58;;;;;;;18.88;8.43;;;19.10;91.30;;;;;;5022094;28;20048;-68
2022/02/11 08:07:03;;;;;;;14.32;8.70;;;19.90;91.40;;;;;;5026034;28;20044;-68
2022/02/11 08:10:10;;;;;;;15.43;9.13;;;20.90;89.50;;;;;;5038294;28;20048;-68
2022/02/11 08:13:15;;;;;;;22.42;11.85;;;20.90;90.00;;;;;;5019030;28;20045;-68
2022/02/11 08:16:19;;;;;;;17.33;8.93;;;20.70;87.00;;;;;;5028649;28;20048;-69
2022/02/11 08:19:23;;;;;;;16.52;9.25;;;18.70;89.70;;;;;;5025266;28;20056;-68
2022/02/11 08:22:28;;;;;;;13.23;7.93;;;17.10;92.00;;;;;;5024950;28;20052;-68
2022/02/11 08:25:34;;;;;;;12.32;6.68;;;18.40;91.40;;;;;;5028228;28;20251;-69
2022/02/11 08:28:38;;;;;;;10.27;6.50;;;21.50;90.90;;;;;;5018641;28;20099;-68
2022/02/11 08:31:43;;;;;;;13.57;7.72;;;24.30;84.50;;;;;;5028085;28;20040;-69
2022/02/11 08:34:47;;;;;;;12.25;8.00;;;25.00;79.00;;;;;;5026178;28;20472;-68
2022/02/11 08:37:52;;;;;;;12.48;8.15;;;24.80;78.30;;;;;;5028094;28;20040;-68
2022/02/11 08:40:59;;;;;;;16.98;9.82;;;23.10;77.60;;;;;;5023116;28;20036;-68
2022/02/11 08:44:03;;;;;;;14.60;9.20;;;20.60;81.60;;;;;;5027481;28;22089;-68
2022/02/11 08:47:08;;;;;;;14.70;9.73;;;18.70;85.10;;;;;;5024109;28;20040;-69
2022/02/11 08:50:18;;;;;;;16.33;10.23;;;16.70;90.10;;;;;;5027638;28;20037;-69
2022/02/11 08:53:25;;;;;;;17.38;9.80;;;16.60;91.30;;;;;;5027065;28;20048;-68
2022/02/11 08:56:30;;;;;;;17.67;10.40;;;16.90;90.90;;;;;;5027381;28;20044;-68
2022/02/11 08:59:35;;;;;;;18.67;11.07;;;13.70;93.60;;;;;;5029818;28;20468;-68
2022/02/11 09:02:39;;;;;;;19.13;10.90;;;13.40;96.40;;;;;;5021402;28;20056;-68
2022/02/11 09:05:43;;;;;;;19.20;11.30;;;13.40;97.30;;;;;;5028229;28;20044;-68
2022/02/11 09:08:47;;;;;;;22.08;12.38;;;12.40;98.80;;;;;;5026983;28;20487;-68
2022/02/11 09:11:51;;;;;;;22.27;11.35;;;12.10;99.90;;;;;;5023448;28;20045;-67
2022/02/11 09:14:55;;;;;;;19.23;11.45;;;13.00;99.90;;;;;;5029764;28;20045;-68
2022/02/11 09:17:59;;;;;;;16.80;10.27;;;14.00;98.80;;;;;;5023390;28;20468;-68
2022/02/11 09:21:04;;;;;;;15.52;10.45;;;14.80;97.60;;;;;;5030852;28;20052;-69
2022/02/11 09:24:08;;;;;;;23.92;9.55;;;16.70;96.10;;;;;;5027278;28;20080;-68
2022/02/11 09:27:13;;;;;;;18.90;10.65;;;19.00;92.80;;;;;;5028347;28;20052;-68
2022/02/11 09:30:21;;;;;;;16.10;9.80;;;18.80;92.50;;;;;;5029749;28;20431;-68
2022/02/11 09:33:26;;;;;;;16.63;10.38;;;17.80;92.70;;;;;;5029656;28;20056;-69
2022/02/11 09:36:35;;;;;;;19.90;11.27;;;18.10;93.10;;;;;;5032296;28;20041;-69
2022/02/11 09:39:39;;;;;;;22.88;12.00;;;16.30;93.80;;;;;;5022918;28;20476;-69
2022/02/11 09:42:43;;;;;;;22.45;11.85;;;14.20;96.60;;;;;;5028188;28;20057;-68
2022/02/11 09:45:49;;;;;;;22.48;12.52;;;12.40;99.90;;;;;;5032627;28;20052;-68
2022/02/11 09:48:53;;;;;;;21.63;13.50;;;13.60;99.90;;;;;;5018750;28;20041;-68
2022/02/11 09:51:58;;;;;;;24.20;14.43;;;13.70;99.70;;;;;;5026645;28;20476;-68
2022/02/11 09:58:25;;;;;;;23.95;12.98;;;14.10;99.90;;;;;;5028589;28;20049;-69
2022/02/11 10:01:29;;;;;;;18.27;9.85;;;17.90;95.50;;;;;;5028016;28;20041;-68
2022/02/11 10:04:34;;;;;;;15.38;10.13;;;21.80;91.80;;;;;;5029483;28;20511;-68
2022/02/11 10:07:58;;;;;;;20.48;11.48;;;24.20;86.00;;;;;;5032933;28;20492;-68
2022/02/11 10:11:07;;;;;;;21.50;10.85;;;22.20;84.90;;;;;;5029379;28;20061;-69
2022/02/11 10:14:18;;;;;;;16.70;10.52;;;23.90;82.30;;;;;;5032616;28;20833;-69
2022/02/11 10:17:23;;;;;;;16.13;10.38;;;23.10;83.50;;;;;;5023941;28;20041;-69
2022/02/11 10:20:29;;;;;;;15.68;9.93;;;25.00;80.00;;;;;;5025019;28;20040;-69
2022/02/11 10:23:41;;;;;;;23.23;12.82;;;25.40;78.60;;;;;;5027250;28;20045;-69
2022/02/11 10:26:48;;;;;;;20.70;12.55;;;28.10;75.00;;;;;;5027444;28;20060;-69
2022/02/11 10:29:58;;;;;;;14.68;9.85;;;29.80;71.10;;;;;;5016949;28;20372;-69
2022/02/11 10:33:02;;;;;;;14.98;9.25;;;26.80;70.20;;;;;;5027583;28;20053;-69
2022/02/11 10:36:38;;;;;;;14.05;9.18;;;28.30;69.90;;;;;;5027436;28;20041;-67
2022/02/11 10:39:43;;;;;;;14.15;7.93;;;26.10;71.30;;;;;;5027510;28;20484;-67
2022/02/11 10:42:48;;;;;;;13.88;8.32;;;26.60;71.90;;;;;;5025425;28;20048;-67
2022/02/11 10:45:54;;;;;;;9.65;5.63;;;27.60;69.60;;;;;;5026397;28;20056;-69
2022/02/11 10:48:59;;;;;;;9.88;6.15;;;28.60;68.50;;;;;;5026339;28;20048;-69
2022/02/11 10:52:25;;;;;;;10.32;5.97;;;27.10;68.60;;;;;;5020921;28;20044;-69
2022/02/11 10:55:29;;;;;;;11.73;5.80;;;29.80;67.80;;;;;;5021887;28;20044;-70
2022/02/11 10:58:34;;;;;;;16.45;6.57;;;30.70;65.40;;;;;;5026206;28;20388;-69
2022/02/11 11:01:38;;;;;;;6.65;3.58;;;29.80;64.50;;;;;;5026565;28;20045;-70
2022/02/11 11:04:42;;;;;;;7.53;4.40;;;28.90;64.20;;;;;;5024482;28;20734;-70
2022/02/11 11:07:47;;;;;;;9.43;4.85;;;30.90;63.70;;;;;;5031069;28;20052;-69
2022/02/11 11:10:55;;;;;;;8.15;5.05;;;32.80;61.80;;;;;;5028848;28;20044;-68
2022/02/11 11:14:00;;;;;;;8.38;5.40;;;31.80;59.20;;;;;;5016924;28;20472;-69
2022/02/11 11:17:04;;;;;;;9.07;3.83;;;29.40;63.40;;;;;;5028802;28;20049;-70
2022/02/11 11:20:09;;;;;;;8.45;4.60;;;30.70;61.10;;;;;;5031305;28;20175;-68
2022/02/11 11:23:27;;;;;;;3.85;1.90;;;32.30;60.60;;;;;;5030674;28;20052;-69
2022/02/11 11:27:01;;;;;;;6.45;2.90;;;33.60;57.20;;;;;;5029192;28;20044;-69
2022/02/11 11:30:37;;;;;;;5.47;2.70;;;35.20;55.60;;;;;;5028459;28;20048;-69
2022/02/11 11:33:42;;;;;;;5.90;3.13;;;36.00;54.30;;;;;;5017042;28;20044;-68
2022/02/11 11:36:48;;;;;;;4.25;2.08;;;35.00;52.20;;;;;;5028716;28;20049;-68
2022/02/11 11:39:54;;;;;;;10.70;2.35;;;34.40;52.70;;;;;;5027101;28;20049;-69
2022/02/11 11:43:15;;;;;;;8.95;2.50;;;34.60;52.60;;;;;;5017725;28;20045;-69
2022/02/11 11:46:20;;;;;;;3.80;1.65;;;32.10;51.70;;;;;;5024657;28;20048;-70
2022/02/11 11:49:26;;;;;;;6.00;2.28;;;31.60;53.90;;;;;;5019671;28;20041;-68
2022/02/11 11:52:45;;;;;;;7.35;2.65;;;31.80;52.60;;;;;;5026901;28;20036;-69
2022/02/11 11:55:49;;;;;;;5.55;2.10;;;32.40;53.90;;;;;;5023922;28;20052;-69
2022/02/11 11:58:53;;;;;;;6.88;1.90;;;33.30;53.40;;;;;;5024338;28;20037;-69
2022/02/11 12:02:16;;;;;;;6.72;1.98;;;33.60;52.30;;;;;;5021497;28;20060;-68
2022/02/11 12:05:45;;;;;;;4.35;1.90;;;33.70;52.70;;;;;;5025591;28;20112;-70
2022/02/11 12:08:50;;;;;;;7.45;1.92;;;34.50;52.20;;;;;;5024699;28;20060;-68
2022/02/11 12:12:03;;;;;;;6.43;2.30;;;33.70;51.80;;;;;;5026230;28;20049;-68
2022/02/11 12:15:09;;;;;;;26.15;12.65;;;30.40;53.10;;;;;;5027194;28;20044;-70
2022/02/11 12:18:13;;;;;;;7.05;3.30;;;28.10;56.20;;;;;;5028022;28;20412;-69
2022/02/11 12:21:17;;;;;;;3.90;2.08;;;26.60;58.00;;;;;;5028680;28;20053;-70
2022/02/11 12:27:50;;;;;;;7.47;3.13;;;27.90;57.30;;;;;;5025632;28;20057;-69
2022/02/11 12:30:54;;;;;;;9.50;5.03;;;26.40;57.30;;;;;;5028748;28;20052;-70
2022/02/11 12:34:12;;;;;;;13.13;7.30;;;24.90;60.00;;;;;;5029441;28;20087;-69
2022/02/11 12:37:18;;;;;;;11.98;3.75;;;25.20;61.10;;;;;;5031099;28;20126;-70
2022/02/11 12:40:28;;;;;;;7.15;2.90;;;25.10;59.60;;;;;;5027222;28;20108;-70
2022/02/11 12:43:32;;;;;;;6.15;3.50;;;26.00;60.10;;;;;;5027289;28;20044;-70
2022/02/11 12:46:38;;;;;;;9.10;2.40;;;26.10;59.50;;;;;;5027196;28;20049;-69
2022/02/11 12:49:51;;;;;;;5.13;2.65;;;24.90;60.30;;;;;;5027653;28;20048;-69
2022/02/11 12:53:01;;;;;;;13.50;2.70;;;24.90;61.30;;;;;;5030958;28;20052;-69
2022/02/11 12:56:12;;;;;;;7.38;2.45;;;24.90;61.20;;;;;;5030801;28;20041;-69
2022/02/11 12:59:16;;;;;;;6.15;2.25;;;24.10;61.90;;;;;;5015938;28;20060;-69
2022/02/11 13:02:24;;;;;;;6.72;2.20;;;22.90;63.10;;;;;;5028992;28;20045;-69
2022/02/11 13:05:34;;;;;;;9.18;2.78;;;22.40;64.40;;;;;;5024438;28;20053;-69
2022/02/11 13:08:38;;;;;;;5.88;2.50;;;22.40;65.00;;;;;;5020307;28;20036;-69
2022/02/11 13:11:45;;;;;;;7.38;2.63;;;23.00;63.30;;;;;;5023856;28;20388;-69
2022/02/11 13:14:49;;;;;;;11.35;5.28;;;22.80;64.00;;;;;;5033238;28;20040;-69
2022/02/11 13:17:53;;;;;;;12.88;4.57;;;22.80;64.60;;;;;;5032220;28;20060;-69
2022/02/11 13:21:05;;;;;;;7.40;3.22;;;21.90;65.40;;;;;;5022151;28;20048;-69
2022/02/11 13:24:09;;;;;;;5.00;2.35;;;21.30;66.30;;;;;;5030730;28;20053;-69
2022/02/11 13:27:13;;;;;;;4.15;1.98;;;20.70;67.40;;;;;;5025039;28;20511;-68
2022/02/11 13:30:29;;;;;;;6.82;2.17;;;20.10;68.50;;;;;;5027026;28;20044;-70
2022/02/11 13:33:36;;;;;;;17.17;8.25;;;19.40;69.90;;;;;;5030395;28;20397;-68
2022/02/11 13:36:45;;;;;;;15.23;7.00;;;19.10;71.60;;;;;;5022741;28;20049;-69
2022/02/11 13:39:49;;;;;;;10.73;2.95;;;19.10;71.70;;;;;;5023227;28;20112;-69
2022/02/11 13:42:57;;;;;;;6.15;2.00;;;20.60;70.40;;;;;;5021861;28;20384;-69
2022/02/11 13:46:02;;;;;;;6.68;2.15;;;23.10;65.80;;;;;;5024247;28;20048;-70
2022/02/11 13:49:15;;;;;;;7.60;2.13;;;24.80;62.70;;;;;;5018256;28;20036;-69
2022/02/11 13:55:51;;;;;;;8.20;4.32;;;27.00;59.30;;;;;;5016360;28;20045;-69
2022/02/11 13:59:06;;;;;;;21.88;15.27;;;26.70;59.50;;;;;;5026451;28;20060;-70
2022/02/11 14:02:10;;;;;;;14.27;7.90;;;25.70;59.30;;;;;;5023731;28;20512;-70
2022/02/11 14:05:14;;;;;;;9.65;4.30;;;23.40;61.40;;;;;;5028523;28;20211;-70
2022/02/11 14:08:19;;;;;;;14.52;8.18;;;21.60;64.50;;;;;;5027248;28;20222;-69
2022/02/11 14:11:23;;;;;;;24.85;16.60;;;20.20;67.10;;;;;;5015330;28;20397;-69
2022/02/11 14:14:29;;;;;;;14.45;6.22;;;19.30;69.90;;;;;;5024503;28;20036;-68
2022/02/11 14:17:34;;;;;;;19.52;9.05;;;18.60;70.80;;;;;;5024553;28;20384;-69
2022/02/11 14:20:39;;;;;;;43.25;23.30;;;18.20;72.00;;;;;;5014381;28;20049;-69
2022/02/11 14:23:43;;;;;;;12.32;5.75;;;18.00;73.30;;;;;;5031517;28;20048;-69
2022/02/11 14:26:48;;;;;;;6.82;2.92;;;18.00;73.30;;;;;;5029695;28;20511;-68
2022/02/11 14:29:52;;;;;;;8.88;2.47;;;17.80;73.70;;;;;;5030294;28;20384;-69
2022/02/11 14:32:56;;;;;;;7.55;2.15;;;17.70;73.90;;;;;;5031010;28;20040;-69
2022/02/11 14:36:00;;;;;;;8.15;2.72;;;17.60;73.90;;;;;;5030955;28;20052;-69
2022/02/11 14:39:05;;;;;;;6.88;2.28;;;17.50;74.50;;;;;;5017504;28;20044;-68
2022/02/11 14:42:10;;;;;;;5.68;2.15;;;17.50;73.50;;;;;;5030589;28;20392;-68
2022/02/11 14:45:15;;;;;;;7.75;2.42;;;17.60;74.20;;;;;;5031191;28;20044;-69
2022/02/11 14:48:19;;;;;;;8.07;2.60;;;17.80;73.50;;;;;;5011277;28;20045;-69
2022/02/11 14:51:23;;;;;;;8.88;3.55;;;18.00;73.80;;;;;;5030325;28;20052;-68
2022/02/11 14:54:28;;;;;;;4.78;2.90;;;18.50;73.30;;;;;;5031515;28;20033;-69
2022/02/11 14:57:34;;;;;;;8.52;3.60;;;18.70;72.40;;;;;;5030498;28;20388;-69
2022/02/11 15:00:39;;;;;;;6.07;2.80;;;18.60;72.40;;;;;;5019603;28;20128;-69
2022/02/11 15:03:42;;;;;;;6.75;2.45;;;18.50;72.20;;;;;;5030149;28;20037;-69
2022/02/11 15:06:51;;;;;;;5.75;2.70;;;18.10;73.10;;;;;;5030248;28;20044;-69
2022/02/11 15:09:55;;;;;;;8.75;2.72;;;17.90;73.70;;;;;;5029572;28;20048;-68
2022/02/11 15:12:59;;;;;;;10.15;2.45;;;17.90;74.20;;;;;;5030095;28;20040;-69
2022/02/11 15:16:03;;;;;;;5.55;2.42;;;17.70;74.40;;;;;;5009588;28;20088;-68
2022/02/11 15:19:07;;;;;;;4.22;2.60;;;17.60;75.00;;;;;;5010667;28;20061;-68
2022/02/11 15:22:13;;;;;;;6.03;2.47;;;17.50;75.00;;;;;;5029539;28;20627;-69
2022/02/11 15:25:17;;;;;;;6.78;2.55;;;17.30;75.80;;;;;;5030021;28;20048;-68
2022/02/11 15:28:21;;;;;;;6.00;2.70;;;17.10;75.80;;;;;;5022944;28;20061;-68
2022/02/11 15:31:25;;;;;;;8.55;2.67;;;16.90;77.10;;;;;;5019208;28;20511;-68
2022/02/11 15:34:29;;;;;;;6.90;3.00;;;16.70;77.60;;;;;;5012923;28;20049;-69
2022/02/11 15:37:33;;;;;;;12.52;2.80;;;16.50;78.00;;;;;;5028181;28;20045;-69
2022/02/11 15:40:37;;;;;;;7.22;2.80;;;16.50;78.00;;;;;;5028043;28;20361;-69
2022/02/11 15:43:41;;;;;;;7.90;3.47;;;16.80;78.00;;;;;;5030633;28;20053;-69
2022/02/11 15:46:45;;;;;;;9.32;4.07;;;17.20;77.40;;;;;;5028576;28;20041;-69
2022/02/11 15:49:49;;;;;;;8.85;3.28;;;17.40;76.40;;;;;;5020380;28;20045;-69
2022/02/11 15:52:53;;;;;;;5.55;2.72;;;17.50;76.40;;;;;;5016889;28;20050;-69
2022/02/11 15:55:57;;;;;;;7.90;3.05;;;17.50;75.90;;;;;;5018907;28;20048;-69
2022/02/11 15:59:01;;;;;;;7.07;3.08;;;17.40;76.20;;;;;;5028993;28;20052;-69
2022/02/11 16:02:05;;;;;;;6.88;3.30;;;17.30;76.70;;;;;;5018541;28;20051;-68
2022/02/11 16:05:10;;;;;;;7.63;3.45;;;17.10;77.10;;;;;;5023171;28;20052;-69
2022/02/11 16:08:14;;;;;;;6.70;3.22;;;16.70;77.90;;;;;;5021624;28;20519;-68
2022/02/11 16:11:18;;;;;;;8.82;3.30;;;16.20;79.60;;;;;;5028257;28;20053;-69
2022/02/11 16:14:25;;;;;;;9.93;3.13;;;15.60;80.80;;;;;;5020708;28;20384;-68
2022/02/11 16:17:32;;;;;;;14.73;4.13;;;15.00;82.20;;;;;;5021942;28;20135;-68
2022/02/11 16:20:39;;;;;;;5.80;3.10;;;14.50;84.80;;;;;;5024578;28;20048;-68
2022/02/11 16:23:43;;;;;;;10.18;3.80;;;14.10;86.30;;;;;;5026643;28;20052;-69
2022/02/11 16:26:47;;;;;;;10.20;4.13;;;13.70;88.10;;;;;;5033410;28;20044;-69
2022/02/11 16:29:51;;;;;;;10.32;4.38;;;13.40;89.50;;;;;;5033696;28;20121;-68
2022/02/11 16:32:57;;;;;;;10.43;4.65;;;13.00;90.40;;;;;;5033694;28;20044;-68
2022/02/11 16:36:01;;;;;;;14.10;4.95;;;12.70;91.30;;;;;;5033683;28;20048;-68
2022/02/11 16:39:05;;;;;;;11.00;5.28;;;12.40;92.40;;;;;;5028832;28;20036;-69
2022/02/11 16:42:09;;;;;;;11.02;5.63;;;12.10;93.40;;;;;;5032475;28;20052;-69
2022/02/11 16:45:14;;;;;;;14.65;5.63;;;11.80;94.20;;;;;;5013414;28;20057;-69
2022/02/11 16:48:18;;;;;;;12.65;5.28;;;11.70;95.30;;;;;;5028044;28;20052;-68
2022/02/11 16:51:22;;;;;;;13.30;5.65;;;11.50;96.20;;;;;;5034032;28;20049;-68
2022/02/11 16:54:26;;;;;;;13.40;5.45;;;11.30;96.80;;;;;;5032454;28;20049;-68
2022/02/11 16:57:30;;;;;;;15.63;5.82;;;11.20;98.00;;;;;;5032720;28;20060;-68
2022/02/11 17:00:34;;;;;;;11.95;5.22;;;11.00;99.00;;;;;;5032889;28;20041;-68
2022/02/11 17:03:38;;;;;;;9.25;4.70;;;10.90;99.70;;;;;;5032842;28;20048;-68
2022/02/11 17:06:42;;;;;;;10.35;5.38;;;10.80;99.90;;;;;;5030993;28;20124;-68
2022/02/11 17:09:46;;;;;;;15.88;7.40;;;10.70;99.90;;;;;;5032267;28;20412;-69
2022/02/11 17:12:50;;;;;;;21.63;10.65;;;10.60;99.90;;;;;;5032701;28;20500;-68
2022/02/11 17:15:54;;;;;;;16.08;8.93;;;10.50;99.90;;;;;;5032104;28;20052;-68
2022/02/11 17:18:58;;;;;;;49.17;22.80;;;10.40;99.90;;;;;;5032151;28;20044;-68
2022/02/11 17:22:02;;;;;;;63.58;26.58;;;10.30;99.90;;;;;;5032852;28;20187;-68
2022/02/11 17:25:08;;;;;;;40.60;18.95;;;10.30;99.90;;;;;;5032586;28;20072;-68
2022/02/11 17:28:14;;;;;;;23.83;12.13;;;10.30;99.90;;;;;;5031483;28;20039;-68
2022/02/11 17:31:18;;;;;;;24.98;10.07;;;10.30;99.90;;;;;;5032527;28;20052;-68
2022/02/11 17:34:24;;;;;;;18.80;9.57;;;10.30;99.90;;;;;;5032367;28;20036;-68
2022/02/11 17:37:28;;;;;;;20.27;11.00;;;10.20;99.90;;;;;;5031248;28;20044;-68
2022/02/11 17:40:32;;;;;;;14.45;7.07;;;10.10;99.90;;;;;;5032151;28;20056;-68
2022/02/11 17:43:36;;;;;;;10.57;5.70;;;9.90;99.90;;;;;;5032182;28;20416;-68
2022/02/11 17:46:40;;;;;;;14.85;6.50;;;9.70;99.90;;;;;;5032325;28;20072;-68
2022/02/11 17:49:46;;;;;;;12.63;5.68;;;9.60;99.90;;;;;;5031537;28;20060;-68
2022/02/11 17:52:50;;;;;;;18.45;7.65;;;9.50;99.90;;;;;;5032266;28;20056;-68
2022/02/11 17:55:54;;;;;;;16.33;5.97;;;9.50;99.90;;;;;;5031816;28;20044;-68
2022/02/11 17:58:58;;;;;;;11.82;5.95;;;9.50;99.90;;;;;;5031302;28;20045;-70
2022/02/11 18:02:03;;;;;;;11.88;5.30;;;9.50;99.90;;;;;;5031138;28;20377;-69
2022/02/11 18:05:08;;;;;;;15.57;5.95;;;9.50;99.90;;;;;;5031337;28;20033;-69
2022/02/11 18:08:12;;;;;;;15.15;5.95;;;9.50;99.90;;;;;;5031079;28;20052;-68
2022/02/11 18:11:16;;;;;;;17.25;6.22;;;9.40;99.90;;;;;;5031790;28;20053;-68
2022/02/11 18:14:20;;;;;;;19.48;8.45;;;9.30;99.90;;;;;;5031462;28;20068;-68
2022/02/11 18:17:25;;;;;;;75.15;39.38;;;9.30;99.90;;;;;;5031300;28;20044;-68
2022/02/11 18:20:30;;;;;;;39.60;19.67;;;9.30;99.90;;;;;;5030856;28;20048;-68
2022/02/11 18:23:36;;;;;;;131.90;59.28;;;9.30;99.90;;;;;;5031374;28;20490;-68
2022/02/11 18:26:42;;;;;;;72.57;29.20;;;9.20;99.90;;;;;;5030341;28;20053;-68
2022/02/11 18:29:46;;;;;;;47.83;24.45;;;9.10;99.90;;;;;;5030645;28;20072;-68
2022/02/11 18:32:50;;;;;;;53.42;35.92;;;9.10;99.90;;;;;;5030318;28;20495;-68
2022/02/11 18:35:54;;;;;;;17.48;8.68;;;9.10;99.90;;;;;;5030821;28;20408;-68
2022/02/11 18:38:58;;;;;;;16.55;7.47;;;9.00;99.90;;;;;;5029859;28;20518;-71
2022/02/11 18:42:03;;;;;;;20.75;13.38;;;9.00;99.90;;;;;;5031077;28;20519;-68
2022/02/11 18:45:09;;;;;;;47.10;24.65;;;8.90;99.90;;;;;;5030862;28;20037;-68
2022/02/11 18:48:20;;;;;;;14.27;6.18;;;8.90;99.90;;;;;;5030373;28;20068;-70
2022/02/11 18:51:24;;;;;;;25.73;11.00;;;9.00;99.90;;;;;;5031055;28;20056;-70
2022/02/11 18:54:28;;;;;;;21.20;9.98;;;9.00;99.90;;;;;;5030749;28;20283;-70
2022/02/11 18:57:33;;;;;;;14.70;7.10;;;9.10;99.90;;;;;;5030704;28;20064;-71
2022/02/11 19:00:37;;;;;;;20.80;8.80;;;9.20;99.90;;;;;;5030653;28;20503;-67
2022/02/11 19:03:41;;;;;;;15.35;8.30;;;9.30;99.90;;;;;;5029755;28;20045;-70
2022/02/11 19:06:46;;;;;;;18.38;7.97;;;9.40;99.90;;;;;;5030616;28;20105;-70
2022/02/11 19:09:50;;;;;;;13.80;8.43;;;9.40;99.90;;;;;;5030234;28;20404;-70
2022/02/11 19:12:55;;;;;;;17.40;7.65;;;9.50;99.90;;;;;;5030707;28;20052;-70
2022/02/11 19:15:58;;;;;;;27.15;18.10;;;9.50;99.90;;;;;;5030936;28;20044;-70
2022/02/11 19:19:02;;;;;;;13.70;7.95;;;9.60;99.90;;;;;;5030417;28;20041;-70
2022/02/11 19:22:06;;;;;;;24.33;13.05;;;9.60;99.90;;;;;;5030577;28;20403;-70
2022/02/11 19:25:19;;;;;;;16.42;9.55;;;9.60;99.90;;;;;;5030342;28;20072;-70
2022/02/11 19:28:22;;;;;;;124.25;64.78;;;9.70;99.90;;;;;;5030114;28;20059;-69
2022/02/11 19:31:29;;;;;;;284.48;135.60;;;9.70;99.90;;;;;;5030378;28;20416;-70
2022/02/11 19:34:35;;;;;;;212.77;123.10;;;9.70;99.90;;;;;;5030168;28;20052;-70
2022/02/11 19:37:39;;;;;;;99.93;60.55;;;9.70;99.90;;;;;;5029758;28;20061;-70
2022/02/11 19:40:44;;;;;;;34.33;21.73;;;9.70;99.90;;;;;;5029623;28;20512;-69
2022/02/11 19:43:48;;;;;;;43.58;27.20;;;9.80;99.90;;;;;;5030144;28;20389;-70
2022/02/11 19:46:53;;;;;;;22.90;16.15;;;9.80;99.90;;;;;;5029209;28;20060;-69
2022/02/11 19:49:59;;;;;;;21.30;13.38;;;9.80;99.90;;;;;;5028604;28;20409;-69
2022/02/11 19:53:03;;;;;;;16.90;9.50;;;9.90;99.90;;;;;;5030032;28;20044;-69
2022/02/11 19:56:08;;;;;;;15.40;9.57;;;9.90;99.90;;;;;;5028492;28;20400;-69
2022/02/11 19:59:15;;;;;;;23.88;11.18;;;9.90;99.90;;;;;;5028675;28;20048;-70